Time;durP1;ratioP1;P1;durP2;ratioP2;P2;SDS_P1;SDS_P2;PMS_P1;PMS_P2;Temp;Humidity;BMP_temperature;BMP_pressure;BME280_temperature;BME280_humidity;BME280_pressure;Samples;Min_cycle;Max_cycle;Signal;HPM_P1;HPM_P2
2023/09/11 00:00:41;;;;;;;1999.90;999.90;;;15.80;99.90;;;;;;5075732;28;20045;-75
2023/09/11 00:03:06;;;;;;;1999.90;999.90;;;15.90;99.90;;;;;;5074690;28;20036;-75
2023/09/11 00:05:32;;;;;;;1999.90;999.90;;;16.00;99.90;;;;;;5078121;28;20036;-75
2023/09/11 00:07:58;;;;;;;1999.90;999.90;;;15.80;99.90;;;;;;5077703;28;20095;-75
2023/09/11 00:10:23;;;;;;;1999.90;999.90;;;15.90;99.90;;;;;;5078025;28;20053;-75
2023/09/11 00:12:49;;;;;;;1999.90;999.90;;;15.80;99.90;;;;;;5077683;28;20490;-75
2023/09/11 00:15:15;;;;;;;1999.90;999.90;;;15.80;99.90;;;;;;5078049;28;20029;-75
2023/09/11 00:17:40;;;;;;;1999.90;999.90;;;15.70;99.90;;;;;;5077373;28;20408;-75
2023/09/11 00:20:10;;;;;;;1999.90;999.90;;;15.70;99.90;;;;;;5077891;28;20041;-75
2023/09/11 00:22:36;;;;;;;1999.90;999.90;;;15.70;99.90;;;;;;5077756;28;20040;-75
2023/09/11 00:25:02;;;;;;;1999.90;999.90;;;15.80;99.90;;;;;;5076060;28;20035;-75
2023/09/11 00:27:27;;;;;;;1999.90;999.90;;;15.80;99.90;;;;;;5077608;28;20124;-75
2023/09/11 00:29:53;;;;;;;1999.90;999.90;;;15.80;99.90;;;;;;5077543;28;20032;-75
2023/09/11 00:32:18;;;;;;;1999.90;999.90;;;15.70;99.90;;;;;;5077333;28;20032;-75
2023/09/11 00:34:44;;;;;;;1999.90;999.90;;;15.60;99.90;;;;;;5095144;28;20564;-75
2023/09/11 00:37:09;;;;;;;1999.90;999.90;;;15.60;99.90;;;;;;5096862;28;20045;-75
2023/09/11 00:39:35;;;;;;;1999.90;999.90;;;15.60;99.90;;;;;;5097834;28;20669;-75
2023/09/11 00:42:01;;;;;;;1999.90;999.90;;;15.50;99.90;;;;;;5097599;28;20028;-75
2023/09/11 00:44:26;;;;;;;1999.90;999.90;;;15.60;99.90;;;;;;5080545;28;20032;-75
2023/09/11 00:46:52;;;;;;;1999.90;999.90;;;15.60;99.90;;;;;;5080094;28;20155;-75
2023/09/11 00:49:20;;;;;;;1999.90;999.90;;;15.70;99.90;;;;;;5097664;28;20118;-75
2023/09/11 00:51:46;;;;;;;1999.90;999.90;;;15.70;99.90;;;;;;5085318;28;20057;-75
2023/09/11 00:54:13;;;;;;;1999.90;999.90;;;15.70;99.90;;;;;;5091881;28;20082;-75
2023/09/11 00:56:39;;;;;;;1999.90;999.90;;;15.60;99.90;;;;;;5096588;28;20036;-75
2023/09/11 00:59:05;;;;;;;1999.90;999.90;;;15.50;99.90;;;;;;5097413;28;20470;-75
2023/09/11 01:01:31;;;;;;;1999.90;999.90;;;15.50;99.90;;;;;;5083405;28;20784;-75
2023/09/11 01:03:58;;;;;;;1999.90;999.90;;;15.50;99.90;;;;;;5076939;28;20048;-75
2023/09/11 01:06:24;;;;;;;1999.90;999.90;;;15.40;99.90;;;;;;5076618;28;20037;-75
2023/09/11 01:08:55;;;;;;;1999.90;999.90;;;15.30;99.90;;;;;;5082878;28;20028;-75
2023/09/11 01:11:21;;;;;;;1999.90;999.90;;;15.30;99.90;;;;;;5097429;28;20060;-74
2023/09/11 01:13:46;;;;;;;1999.90;999.90;;;15.30;99.90;;;;;;5095318;28;20072;-75
2023/09/11 01:16:25;;;;;;;1999.90;999.90;;;15.30;99.90;;;;;;5096521;28;20040;-75
2023/09/11 01:19:13;;;;;;;1999.90;999.90;;;15.20;99.90;;;;;;5077886;28;20033;-75
2023/09/11 01:22:04;;;;;;;1999.90;999.90;;;15.20;99.90;;;;;;5034659;28;20037;-75
2023/09/11 01:24:57;;;;;;;1999.90;999.90;;;15.20;99.90;;;;;;5084715;28;20111;-75
2023/09/11 01:27:50;;;;;;;1999.90;999.90;;;15.10;99.90;;;;;;5096551;28;20044;-75
2023/09/11 01:30:16;;;;;;;1999.90;999.90;;;15.10;99.90;;;;;;5086732;28;20029;-75
2023/09/11 01:32:42;;;;;;;1999.90;999.90;;;15.10;99.90;;;;;;5081296;28;20045;-75
2023/09/11 01:35:08;;;;;;;1999.90;999.90;;;15.00;99.90;;;;;;5079594;28;20554;-76
2023/09/11 01:37:34;;;;;;;1999.90;999.90;;;15.00;99.90;;;;;;5094600;28;20041;-75
2023/09/11 01:39:59;;;;;;;1999.90;999.90;;;14.90;99.90;;;;;;5095468;28;20025;-75
2023/09/11 01:42:38;;;;;;;1999.90;999.90;;;14.90;99.90;;;;;;5075133;28;20029;-75
2023/09/11 01:45:05;;;;;;;1999.90;999.90;;;14.90;99.90;;;;;;5074858;28;20029;-76
2023/09/11 01:47:32;;;;;;;1999.90;999.90;;;14.90;99.90;;;;;;5081259;28;20036;-75
2023/09/11 01:49:59;;;;;;;1999.90;999.90;;;14.90;99.90;;;;;;5096682;28;20032;-75
2023/09/11 01:52:26;;;;;;;1999.90;999.90;;;14.80;99.90;;;;;;5094947;28;20036;-75
2023/09/11 01:54:52;;;;;;;1999.90;999.90;;;14.80;99.90;;;;;;5086683;28;20041;-75
2023/09/11 01:57:18;;;;;;;1999.90;999.90;;;14.80;99.90;;;;;;5075783;28;20127;-75
2023/09/11 01:59:43;;;;;;;1999.90;999.90;;;14.80;99.90;;;;;;5094947;28;20612;-75
2023/09/11 02:02:09;;;;;;;1999.90;999.90;;;14.80;99.90;;;;;;5096459;28;20056;-75
2023/09/11 02:04:34;;;;;;;1999.90;999.90;;;14.80;99.90;;;;;;5096526;28;20106;-75
2023/09/11 02:07:00;;;;;;;1999.90;999.90;;;14.80;99.90;;;;;;5095855;28;20163;-75
2023/09/11 02:09:26;;;;;;;1999.90;999.90;;;14.80;99.90;;;;;;5096392;28;20116;-75
2023/09/11 02:11:51;;;;;;;1999.90;999.90;;;14.70;99.90;;;;;;5080787;28;20509;-75
2023/09/11 02:14:17;;;;;;;1999.90;999.90;;;14.70;99.90;;;;;;5076233;28;20168;-75
2023/09/11 02:16:42;;;;;;;1999.90;999.90;;;14.70;99.90;;;;;;5075556;28;20037;-75
2023/09/11 02:19:08;;;;;;;1999.90;999.90;;;14.70;99.90;;;;;;5074626;28;20029;-75
2023/09/11 02:21:33;;;;;;;1999.90;999.90;;;14.70;99.90;;;;;;5080615;28;20105;-75
2023/09/11 02:23:59;;;;;;;1999.90;999.90;;;14.70;99.90;;;;;;5096210;28;20028;-75
2023/09/11 02:26:24;;;;;;;1999.90;999.90;;;14.50;99.90;;;;;;5092536;28;20406;-75
2023/09/11 02:28:50;;;;;;;1999.90;999.90;;;14.60;99.90;;;;;;5094663;28;20111;-75
2023/09/11 02:31:15;;;;;;;1999.90;999.90;;;14.60;99.90;;;;;;5096046;28;20098;-75
2023/09/11 02:33:41;;;;;;;1999.90;999.90;;;14.60;99.90;;;;;;5095656;28;20090;-75
2023/09/11 02:36:06;;;;;;;1999.90;999.90;;;14.60;99.90;;;;;;5093522;28;20045;-75
2023/09/11 02:38:32;;;;;;;1999.90;999.90;;;14.50;99.90;;;;;;5095929;28;20028;-76
2023/09/11 02:40:57;;;;;;;1999.90;999.90;;;14.50;99.90;;;;;;5088018;28;20040;-75
2023/09/11 02:43:23;;;;;;;1999.90;999.90;;;14.50;99.90;;;;;;5075657;28;20033;-74
2023/09/11 02:45:49;;;;;;;1999.90;999.90;;;14.50;99.90;;;;;;5074790;28;20073;-75
2023/09/11 02:48:14;;;;;;;1999.90;999.90;;;14.50;99.90;;;;;;5087491;28;20028;-75
2023/09/11 02:50:40;;;;;;;1999.90;999.90;;;14.40;99.90;;;;;;5087446;28;20064;-75
2023/09/11 02:53:08;;;;;;;1999.90;999.90;;;14.30;99.90;;;;;;5075352;28;20065;-75
2023/09/11 02:55:37;;;;;;;1999.90;999.90;;;14.50;99.90;;;;;;5075128;28;20487;-75
2023/09/11 02:58:03;;;;;;;1999.90;999.90;;;14.50;99.90;;;;;;5075012;28;20041;-75
2023/09/11 03:00:29;;;;;;;1999.90;999.90;;;14.50;99.90;;;;;;5073581;28;20178;-74
2023/09/11 03:02:56;;;;;;;1999.90;999.90;;;14.50;99.90;;;;;;5075244;28;20033;-75
2023/09/11 03:05:22;;;;;;;1999.90;999.90;;;14.50;99.90;;;;;;5075193;28;20473;-74
2023/09/11 03:07:47;;;;;;;1999.90;999.90;;;14.50;99.90;;;;;;5074561;28;20029;-74
2023/09/11 03:10:13;;;;;;;1999.90;999.90;;;14.50;99.90;;;;;;5074903;28;20036;-75
2023/09/11 03:12:38;;;;;;;1999.90;999.90;;;14.50;99.90;;;;;;5075017;28;20052;-75
2023/09/11 03:15:04;;;;;;;1999.90;999.90;;;14.40;99.90;;;;;;5090285;28;20393;-75
2023/09/11 03:17:30;;;;;;;1999.90;999.90;;;14.50;99.90;;;;;;5085595;28;20767;-74
2023/09/11 03:19:57;;;;;;;1999.90;999.90;;;14.50;99.90;;;;;;5074821;28;20036;-75
2023/09/11 03:22:23;;;;;;;1999.90;999.90;;;14.40;99.90;;;;;;5074700;28;20029;-75
2023/09/11 03:24:48;;;;;;;1999.90;999.90;;;14.40;99.90;;;;;;5073230;28;20041;-75
2023/09/11 03:27:14;;;;;;;1999.90;999.90;;;14.40;99.90;;;;;;5081608;28;20040;-75
2023/09/11 03:29:40;;;;;;;1999.90;999.90;;;14.40;99.90;;;;;;5094965;28;20078;-75
2023/09/11 03:32:06;;;;;;;1999.90;999.90;;;14.40;99.90;;;;;;5093533;28;20090;-75
2023/09/11 03:34:31;;;;;;;1999.90;999.90;;;14.40;99.90;;;;;;5095171;28;20585;-75
2023/09/11 03:36:57;;;;;;;1999.90;999.90;;;14.40;99.90;;;;;;5099162;22;20045;-72
2023/09/11 03:39:22;;;;;;;1999.90;999.90;;;14.40;99.90;;;;;;5077641;28;20045;-73
2023/09/11 03:41:49;;;;;;;1999.90;999.90;;;14.40;99.90;;;;;;5094508;28;20036;-73
2023/09/11 03:44:15;;;;;;;1999.90;999.90;;;14.40;99.90;;;;;;5094219;28;20043;-73
2023/09/11 03:46:40;;;;;;;1999.90;999.90;;;14.50;99.90;;;;;;5094301;28;20036;-73
2023/09/11 03:49:06;;;;;;;1999.90;999.90;;;14.50;99.90;;;;;;5093789;28;20048;-73
2023/09/11 03:51:32;;;;;;;1999.90;999.90;;;14.50;99.90;;;;;;5058158;28;20401;-73
2023/09/11 03:53:58;;;;;;;1999.90;999.90;;;14.50;99.90;;;;;;5073949;28;20491;-74
2023/09/11 03:56:24;;;;;;;1999.90;999.90;;;14.50;99.90;;;;;;5074106;28;20049;-74
2023/09/11 03:58:50;;;;;;;1999.90;999.90;;;14.40;99.90;;;;;;5074233;28;20072;-73
2023/09/11 04:01:16;;;;;;;1999.90;999.90;;;14.30;99.90;;;;;;5091437;28;20036;-71
2023/09/11 04:03:42;;;;;;;1999.90;999.90;;;14.40;99.90;;;;;;5089814;28;20489;-71
2023/09/11 04:06:08;;;;;;;1999.90;999.90;;;14.40;99.90;;;;;;5078251;28;20040;-71
2023/09/11 04:08:33;;;;;;;1999.90;999.90;;;14.40;99.90;;;;;;5074293;28;20029;-71
2023/09/11 04:11:00;;;;;;;1999.90;999.90;;;14.40;99.90;;;;;;5089373;28;20082;-71
2023/09/11 04:13:26;;;;;;;1999.90;999.90;;;14.40;99.90;;;;;;5091610;28;20068;-71
2023/09/11 04:15:52;;;;;;;1999.90;999.90;;;14.40;99.90;;;;;;5079920;28;20063;-71
2023/09/11 04:18:17;;;;;;;1999.90;999.90;;;14.30;99.90;;;;;;5093835;28;20047;-71
2023/09/11 04:20:43;;;;;;;1999.90;999.90;;;14.30;99.90;;;;;;5094170;28;20087;-71
2023/09/11 04:23:08;;;;;;;1999.90;999.90;;;14.30;99.90;;;;;;5094484;28;20036;-71
2023/09/11 04:25:34;;;;;;;1999.90;999.90;;;14.20;99.90;;;;;;5092613;28;20367;-71
2023/09/11 04:28:00;;;;;;;1999.90;999.90;;;14.10;99.90;;;;;;5082684;28;20501;-71
2023/09/11 04:30:25;;;;;;;1999.90;999.90;;;14.10;99.90;;;;;;5086627;28;20120;-73
2023/09/11 04:32:51;;;;;;;1999.90;999.90;;;14.10;99.90;;;;;;5092510;28;20421;-73
2023/09/11 04:35:18;;;;;;;1999.90;999.90;;;14.00;99.90;;;;;;5093645;28;20024;-73
2023/09/11 04:37:44;;;;;;;1999.90;999.90;;;14.00;99.90;;;;;;5086177;28;20043;-73
2023/09/11 04:40:10;;;;;;;1999.90;999.90;;;13.90;99.90;;;;;;5087715;28;20035;-73
2023/09/11 04:42:36;;;;;;;1999.90;999.90;;;13.80;99.90;;;;;;5093990;28;20041;-73
2023/09/11 04:45:02;;;;;;;1999.90;999.90;;;13.90;99.90;;;;;;5080765;28;20029;-73
2023/09/11 04:47:31;;;;;;;1999.90;999.90;;;13.80;99.90;;;;;;5092788;28;20068;-73
2023/09/11 04:49:57;;;;;;;1999.90;999.90;;;13.90;99.90;;;;;;5089702;28;20434;-73
2023/09/11 04:52:22;;;;;;;1999.90;999.90;;;13.90;99.90;;;;;;5078410;28;20076;-74
2023/09/11 04:54:48;;;;;;;1999.90;999.90;;;13.90;99.90;;;;;;5075569;28;20033;-74
2023/09/11 04:57:13;;;;;;;1999.90;999.90;;;13.90;99.90;;;;;;5075086;28;20040;-74
2023/09/11 04:59:41;;;;;;;1999.90;999.90;;;13.80;99.90;;;;;;5077305;28;20079;-74
2023/09/11 05:02:07;;;;;;;1999.90;999.90;;;13.80;99.90;;;;;;5086047;28;20112;-75
2023/09/11 05:04:33;;;;;;;1999.90;999.90;;;13.80;99.90;;;;;;5097341;28;20040;-74
2023/09/11 05:06:58;;;;;;;1999.90;999.90;;;13.90;99.90;;;;;;5081600;28;20044;-76
2023/09/11 05:09:24;;;;;;;1999.90;999.90;;;13.80;99.90;;;;;;5087260;28;20040;-74
2023/09/11 05:11:50;;;;;;;1999.90;999.90;;;13.80;99.90;;;;;;5076669;28;20049;-74
2023/09/11 05:14:15;;;;;;;1999.90;999.90;;;13.90;99.90;;;;;;5075268;28;20120;-74
2023/09/11 05:16:41;;;;;;;1999.90;999.90;;;13.90;99.90;;;;;;5075973;28;20067;-74
2023/09/11 05:19:06;;;;;;;1999.90;999.90;;;13.80;99.90;;;;;;5076425;28;20526;-74
2023/09/11 05:21:32;;;;;;;1999.90;999.90;;;13.80;99.90;;;;;;5076668;28;20043;-74
2023/09/11 05:23:58;;;;;;;1999.90;999.90;;;13.90;99.90;;;;;;5076682;28;20032;-74
2023/09/11 05:26:23;;;;;;;1999.90;999.90;;;13.90;99.90;;;;;;5076418;28;20029;-74
2023/09/11 05:28:49;;;;;;;1999.90;999.90;;;14.00;99.90;;;;;;5076737;28;20037;-74
2023/09/11 05:31:14;;;;;;;1999.90;999.90;;;14.00;99.90;;;;;;5075256;28;20071;-75
2023/09/11 05:33:40;;;;;;;1999.90;999.90;;;14.00;99.90;;;;;;5076286;28;20033;-75
2023/09/11 05:36:06;;;;;;;1999.90;999.90;;;14.10;99.90;;;;;;5075328;28;20087;-74
2023/09/11 05:38:31;;;;;;;1999.90;999.90;;;14.00;99.90;;;;;;5076825;28;20029;-74
2023/09/11 05:40:57;;;;;;;1999.90;999.90;;;14.10;99.90;;;;;;5076375;28;20536;-74
2023/09/11 05:43:22;;;;;;;1999.90;999.90;;;14.10;99.90;;;;;;5076773;28;20032;-73
2023/09/11 05:45:48;;;;;;;1999.90;999.90;;;14.10;99.90;;;;;;5074462;28;20078;-73
2023/09/11 05:48:14;;;;;;;1999.90;999.90;;;14.20;99.90;;;;;;5074586;28;20482;-74
2023/09/11 05:50:39;;;;;;;1999.90;999.90;;;14.10;99.90;;;;;;5075956;28;20127;-74
2023/09/11 05:53:06;;;;;;;1999.90;999.90;;;14.30;99.90;;;;;;5076287;28;20126;-74
2023/09/11 05:55:35;;;;;;;1999.90;999.90;;;14.20;99.90;;;;;;5075955;28;20029;-74
2023/09/11 05:58:01;;;;;;;1999.90;999.90;;;14.20;99.90;;;;;;5075407;28;20539;-74
2023/09/11 06:00:26;;;;;;;1999.90;999.90;;;14.20;99.90;;;;;;5075764;28;20112;-73
2023/09/11 06:02:52;;;;;;;1999.90;999.90;;;14.30;99.90;;;;;;5076185;28;20506;-74
2023/09/11 06:05:19;;;;;;;1999.90;999.90;;;14.30;99.90;;;;;;5076038;28;20064;-74
2023/09/11 06:07:44;;;;;;;1999.90;999.90;;;14.40;99.90;;;;;;5075551;28;20108;-74
2023/09/11 06:10:12;;;;;;;1999.90;999.90;;;14.40;99.90;;;;;;5075849;28;20514;-74
2023/09/11 06:12:38;;;;;;;1999.90;999.90;;;14.50;99.90;;;;;;5074443;28;20033;-73
2023/09/11 06:15:04;;;;;;;1999.90;999.90;;;14.50;99.90;;;;;;5075951;28;20025;-74
2023/09/11 06:17:31;;;;;;;1999.90;999.90;;;14.60;99.90;;;;;;5075127;28;20037;-74
2023/09/11 06:19:56;;;;;;;1999.90;999.90;;;14.70;99.90;;;;;;5075994;28;20029;-74
2023/09/11 06:22:22;;;;;;;1999.90;999.90;;;14.80;99.90;;;;;;5075650;28;20431;-74
2023/09/11 06:24:48;;;;;;;1999.90;999.90;;;14.80;99.90;;;;;;5074058;28;20443;-74
2023/09/11 06:27:13;;;;;;;1999.90;999.90;;;14.80;99.90;;;;;;5075303;28;20902;-74
2023/09/11 06:29:39;;;;;;;1999.90;999.90;;;14.90;99.90;;;;;;5075786;28;20043;-74
2023/09/11 06:32:06;;;;;;;1999.90;999.90;;;15.00;99.90;;;;;;5075554;28;20047;-74
2023/09/11 06:34:32;;;;;;;1999.90;999.90;;;15.10;99.90;;;;;;5075547;28;20516;-74
2023/09/11 06:36:58;;;;;;;1999.90;999.90;;;15.20;99.90;;;;;;5075040;28;20041;-74
2023/09/11 06:39:23;;;;;;;1999.90;999.90;;;15.20;99.90;;;;;;5075603;28;20109;-74
2023/09/11 06:41:49;;;;;;;1999.90;999.90;;;15.40;99.90;;;;;;5075140;28;20131;-74
2023/09/11 06:44:15;;;;;;;1999.90;999.90;;;15.50;99.90;;;;;;5075593;28;20033;-74
2023/09/11 06:46:41;;;;;;;1999.90;999.90;;;15.50;99.90;;;;;;5075006;28;20566;-74
2023/09/11 06:49:06;;;;;;;1999.90;999.90;;;15.60;99.90;;;;;;5075535;28;20035;-74
2023/09/11 06:51:33;;;;;;;1999.90;999.90;;;15.80;99.90;;;;;;5075194;28;20037;-74
2023/09/11 06:53:58;;;;;;;1999.90;999.90;;;16.00;99.90;;;;;;5075346;28;20426;-74
2023/09/11 06:56:24;;;;;;;1999.90;999.90;;;16.00;99.90;;;;;;5074744;28;20036;-74
2023/09/11 06:58:49;;;;;;;1999.90;999.90;;;16.10;99.90;;;;;;5073855;28;20037;-74
2023/09/11 07:01:15;;;;;;;1999.90;999.90;;;16.20;99.90;;;;;;5075290;28;20029;-74
2023/09/11 07:03:41;;;;;;;1999.90;999.90;;;16.40;99.90;;;;;;5074754;28;20044;-74
2023/09/11 07:06:07;;;;;;;1999.90;999.90;;;16.50;99.90;;;;;;5074909;28;20029;-74
2023/09/11 07:08:32;;;;;;;1999.90;999.90;;;16.60;99.90;;;;;;5073662;28;20037;-74
2023/09/11 07:10:58;;;;;;;1999.90;999.90;;;16.70;99.90;;;;;;5075244;28;20056;-74
2023/09/11 07:13:23;;;;;;;1999.90;999.90;;;16.80;99.90;;;;;;5074622;28;20112;-74
2023/09/11 07:15:56;;;;;;;1999.90;999.90;;;17.00;99.90;;;;;;5074402;28;20028;-74
2023/09/11 07:18:22;;;;;;;1999.90;999.90;;;17.10;99.90;;;;;;5075056;28;20117;-74
2023/09/11 07:20:48;;;;;;;1999.90;999.90;;;17.30;99.90;;;;;;5075133;28;20029;-74
2023/09/11 07:23:13;;;;;;;1999.90;999.90;;;17.30;99.90;;;;;;5075295;28;20040;-74
2023/09/11 07:25:39;;;;;;;1999.90;999.90;;;17.40;99.90;;;;;;5074649;28;20084;-74
2023/09/11 07:28:06;;;;;;;1999.90;999.90;;;17.60;99.90;;;;;;5074693;28;20449;-74
2023/09/11 07:30:31;;;;;;;1999.90;999.90;;;17.70;99.90;;;;;;5074675;28;20029;-74
2023/09/11 07:32:57;;;;;;;1999.90;999.90;;;17.80;99.90;;;;;;5074831;28;20036;-74
2023/09/11 07:35:22;;;;;;;1999.90;999.90;;;18.10;99.90;;;;;;5073415;28;20474;-74
2023/09/11 07:37:48;;;;;;;1999.90;999.90;;;18.20;99.90;;;;;;5072616;28;20520;-74
2023/09/11 07:40:14;;;;;;;1999.90;999.90;;;18.30;99.90;;;;;;5074632;28;20029;-74
2023/09/11 07:42:39;;;;;;;1999.90;999.90;;;18.50;99.90;;;;;;5074539;28;20033;-74
2023/09/11 07:45:06;;;;;;;1999.90;999.90;;;18.60;99.90;;;;;;5074502;28;20471;-74
2023/09/11 07:47:32;;;;;;;1999.90;999.90;;;18.80;99.90;;;;;;5074065;28;20043;-74
2023/09/11 07:49:57;;;;;;;1999.90;999.90;;;19.00;99.90;;;;;;5073110;28;20489;-74
2023/09/11 07:52:23;;;;;;;1999.90;999.90;;;19.20;99.90;;;;;;5074375;28;20064;-74
2023/09/11 07:54:48;;;;;;;1999.90;999.90;;;19.40;99.90;;;;;;5074333;28;20505;-74
2023/09/11 07:57:14;;;;;;;1999.90;999.90;;;19.50;99.90;;;;;;5073786;28;20421;-74
2023/09/11 07:59:40;;;;;;;1999.90;999.90;;;19.70;99.90;;;;;;5074156;28;20415;-74
2023/09/11 08:02:05;;;;;;;1999.90;999.90;;;20.00;99.90;;;;;;5074955;28;20113;-74
2023/09/11 08:04:32;;;;;;;1999.90;999.90;;;20.20;99.90;;;;;;5072538;28;20029;-74
2023/09/11 08:06:58;;;;;;;1999.90;999.90;;;20.40;99.90;;;;;;5074044;28;20037;-74
2023/09/11 08:09:23;;;;;;;1999.90;999.90;;;20.60;99.90;;;;;;5074384;28;20025;-74
2023/09/11 08:11:50;;;;;;;1999.90;999.90;;;20.70;99.90;;;;;;5074342;28;20041;-74
2023/09/11 08:14:16;;;;;;;1999.90;999.90;;;20.80;99.90;;;;;;5074214;28;20145;-74
2023/09/11 08:16:42;;;;;;;1999.90;999.90;;;21.00;99.90;;;;;;5073677;28;20033;-74
2023/09/11 08:19:09;;;;;;;1999.90;999.90;;;21.20;99.90;;;;;;5072551;28;20029;-74
2023/09/11 08:21:34;;;;;;;1999.90;999.90;;;21.40;99.90;;;;;;5074287;28;20033;-74
2023/09/11 08:24:00;;;;;;;1999.90;999.90;;;21.50;99.90;;;;;;5074484;28;20029;-74
2023/09/11 08:26:26;;;;;;;1999.90;999.90;;;21.70;99.90;;;;;;5077134;28;20046;-74
2023/09/11 08:28:51;;;;;;;1999.90;999.90;;;21.90;99.90;;;;;;5077554;28;20029;-74
2023/09/11 08:31:17;;;;;;;1999.90;999.90;;;22.10;99.90;;;;;;5077438;28;20091;-74
2023/09/11 08:33:42;;;;;;;1999.90;999.90;;;22.20;99.90;;;;;;5077286;28;20060;-74
2023/09/11 08:36:09;;;;;;;1999.90;999.90;;;22.40;99.90;;;;;;5075391;28;20029;-74
2023/09/11 08:38:35;;;;;;;1999.90;999.90;;;22.50;99.90;;;;;;5077585;28;20082;-74
2023/09/11 08:41:04;;;;;;;1999.90;999.90;;;22.70;99.90;;;;;;5077480;28;20758;-74
2023/09/11 08:43:30;;;;;;;1999.90;999.90;;;22.70;99.90;;;;;;5077313;28;20056;-74
2023/09/11 08:45:56;;;;;;;1999.90;999.90;;;22.80;99.90;;;;;;5076887;28;20037;-74
2023/09/11 08:48:28;;;;;;;1999.90;999.90;;;22.80;99.90;;;;;;5075823;28;20095;-74
2023/09/11 08:51:00;;;;;;;1999.90;999.90;;;23.00;99.90;;;;;;5077592;28;20028;-74
2023/09/11 08:53:26;;;;;;;1999.90;999.90;;;23.10;99.90;;;;;;5075511;28;20033;-74
2023/09/11 08:55:54;;;;;;;1999.90;999.90;;;23.20;99.90;;;;;;5077005;28;20043;-74
2023/09/11 08:58:21;;;;;;;1999.90;999.90;;;23.40;99.90;;;;;;5076771;28;20025;-74
2023/09/11 09:00:47;;;;;;;1999.90;999.90;;;23.50;99.90;;;;;;5076902;28;20036;-74
2023/09/11 09:03:13;;;;;;;1999.90;999.90;;;23.70;99.90;;;;;;5077198;28;20490;-74
2023/09/11 09:05:40;;;;;;;1999.90;999.90;;;23.70;99.90;;;;;;5076883;28;20526;-74
2023/09/11 09:08:07;;;;;;;1999.90;999.90;;;23.80;99.90;;;;;;5076678;28;20057;-74
2023/09/11 09:10:33;;;;;;;1999.90;999.90;;;24.00;99.90;;;;;;5075208;28;20056;-74
2023/09/11 09:13:00;;;;;;;1999.90;999.90;;;24.10;99.90;;;;;;5076672;28;20582;-74
2023/09/11 09:15:27;;;;;;;1999.90;999.90;;;24.10;99.90;;;;;;5076854;28;20061;-74
2023/09/11 09:17:52;;;;;;;1999.90;999.90;;;24.30;99.90;;;;;;5076600;28;20032;-74
2023/09/11 09:20:20;;;;;;;1999.90;999.90;;;24.40;99.90;;;;;;5076810;28;20056;-74
2023/09/11 09:22:59;;;;;;;1999.90;999.90;;;24.60;99.90;;;;;;5076768;28;20050;-74
2023/09/11 09:25:26;;;;;;;1999.90;999.90;;;24.50;99.90;;;;;;5075047;28;20124;-75
2023/09/11 09:27:52;;;;;;;1999.90;999.90;;;24.70;99.90;;;;;;5074661;28;20773;-75
2023/09/11 09:30:26;;;;;;;1999.90;999.90;;;24.90;99.90;;;;;;5075211;28;20029;-75
2023/09/11 09:32:52;;;;;;;1999.90;999.90;;;25.10;99.90;;;;;;5076588;28;20041;-75
2023/09/11 09:35:26;;;;;;;1999.90;999.90;;;25.20;99.90;;;;;;5076171;28;20037;-75
2023/09/11 09:37:53;;;;;;;1999.90;999.90;;;25.30;99.90;;;;;;5082450;22;20175;-74
2023/09/11 09:40:29;;;;;;;1999.90;999.90;;;25.30;99.90;;;;;;5071603;28;20042;-74
2023/09/11 09:42:55;;;;;;;1999.90;999.90;;;25.30;99.90;;;;;;5056345;28;20110;-74
2023/09/11 09:45:29;;;;;;;1999.90;999.90;;;25.40;99.90;;;;;;5055879;28;20037;-74
2023/09/11 09:48:08;;;;;;;1999.90;999.90;;;25.50;99.90;;;;;;5071657;28;20032;-74
2023/09/11 09:50:52;;;;;;;1999.90;999.90;;;25.40;99.90;;;;;;5091678;28;20037;-74
2023/09/11 09:53:32;;;;;;;1999.90;999.90;;;25.50;99.90;;;;;;5091535;28;20037;-74
2023/09/11 09:56:07;;;;;;;1999.90;999.90;;;25.70;99.90;;;;;;5076189;28;20060;-75
2023/09/11 09:58:44;;;;;;;1999.90;999.90;;;25.90;99.90;;;;;;5076082;28;20029;-74
2023/09/11 10:01:17;;;;;;;1999.90;999.90;;;26.00;99.90;;;;;;5076207;28;20024;-74
2023/09/11 10:03:48;;;;;;;1999.90;999.90;;;26.10;99.90;;;;;;5091484;28;20033;-74
2023/09/11 10:06:18;;;;;;;1999.90;999.90;;;26.20;99.90;;;;;;5075472;28;20041;-74
2023/09/11 10:08:45;;;;;;;1999.90;999.90;;;26.30;99.90;;;;;;5091308;28;20466;-74
2023/09/11 10:11:41;;;;;;;1999.90;999.90;;;26.30;99.90;;;;;;5076148;28;20044;-74
2023/09/11 10:14:08;;;;;;;1999.90;999.90;;;26.40;99.90;;;;;;5061811;28;20111;-74
2023/09/11 10:16:34;;;;;;;1999.90;999.90;;;26.50;99.90;;;;;;5090638;28;20044;-74
2023/09/11 10:19:01;;;;;;;1999.90;999.90;;;26.60;99.90;;;;;;5075718;28;20029;-74
2023/09/11 10:21:27;;;;;;;1999.90;999.90;;;26.60;99.90;;;;;;5075948;28;20482;-74
2023/09/11 10:23:54;;;;;;;1999.90;999.90;;;26.80;99.90;;;;;;5075770;28;20111;-75
2023/09/11 10:26:48;;;;;;;1999.90;999.90;;;26.90;99.90;;;;;;5075307;28;20037;-74
2023/09/11 10:29:24;;;;;;;1999.90;999.90;;;27.00;99.90;;;;;;5074436;28;20123;-74
2023/09/11 10:32:01;;;;;;;1999.90;999.90;;;27.20;99.90;;;;;;5075952;28;20087;-74
2023/09/11 10:34:27;;;;;;;1999.90;999.90;;;27.30;99.10;;;;;;5075430;28;20037;-74
2023/09/11 10:36:58;;;;;;;1999.90;999.90;;;27.20;97.10;;;;;;5074760;28;20410;-74
2023/09/11 10:39:24;;;;;;;1999.90;999.90;;;27.30;96.80;;;;;;5075695;28;20116;-74
2023/09/11 10:41:50;;;;;;;1999.90;999.90;;;27.30;97.90;;;;;;5075385;28;20100;-75
2023/09/11 10:44:16;;;;;;;1999.90;999.90;;;27.40;97.40;;;;;;5075608;28;20064;-74
2023/09/11 10:46:49;;;;;;;1999.90;999.90;;;27.60;96.40;;;;;;5074328;28;20029;-74
2023/09/11 10:49:20;;;;;;;1999.90;999.90;;;27.80;94.50;;;;;;5075398;28;20037;-75
2023/09/11 10:51:47;;;;;;;1999.90;999.90;;;27.80;94.60;;;;;;5075449;28;20021;-74
2023/09/11 10:54:15;;;;;;;1999.90;999.90;;;27.90;94.90;;;;;;5090917;28;20486;-74
2023/09/11 10:56:42;;;;;;;1999.90;999.90;;;27.90;93.10;;;;;;5074850;28;20036;-75
2023/09/11 10:59:07;;;;;;;1999.90;999.90;;;28.00;93.20;;;;;;5075039;28;20028;-74
2023/09/11 11:01:33;;;;;;;1999.90;999.90;;;28.10;92.30;;;;;;5090742;28;20040;-74
2023/09/11 11:04:06;;;;;;;1999.90;999.90;;;28.20;91.60;;;;;;5075123;28;20033;-74
2023/09/11 11:06:33;;;;;;;1999.90;999.90;;;28.20;91.00;;;;;;5074523;28;20037;-74
2023/09/11 11:08:59;;;;;;;1999.90;999.90;;;28.20;90.00;;;;;;5075284;28;20104;-74
2023/09/11 11:11:27;;;;;;;1999.90;999.90;;;28.40;91.20;;;;;;5074679;28;20522;-74
2023/09/11 11:14:11;;;;;;;1999.90;999.90;;;28.30;90.30;;;;;;5090392;28;20048;-74
2023/09/11 11:16:38;;;;;;;1999.90;999.90;;;28.40;90.30;;;;;;5090072;28;20040;-74
2023/09/11 11:19:04;;;;;;;1999.90;999.90;;;28.60;89.80;;;;;;5074944;28;20051;-74
2023/09/11 11:21:39;;;;;;;1999.90;999.90;;;28.70;90.30;;;;;;5075015;28;20029;-74
2023/09/11 11:24:07;;;;;;;1999.90;999.90;;;28.90;86.50;;;;;;5074771;28;20112;-74
2023/09/11 11:26:36;;;;;;;1999.90;999.90;;;29.10;85.40;;;;;;5074380;28;20078;-74
2023/09/11 11:29:03;;;;;;;1999.90;999.90;;;29.10;87.70;;;;;;5074744;28;20025;-75
2023/09/11 11:31:31;;;;;;;1999.90;999.90;;;29.30;86.70;;;;;;5074709;28;20458;-75
2023/09/11 11:33:58;;;;;;;1999.90;999.90;;;29.40;81.70;;;;;;5074739;28;20090;-75
2023/09/11 11:36:26;;;;;;;1999.90;999.90;;;29.40;83.30;;;;;;5074277;28;20394;-75
2023/09/11 11:38:55;;;;;;;1999.90;999.90;;;29.30;81.50;;;;;;5074977;28;20536;-74
2023/09/11 11:41:22;;;;;;;1999.90;999.90;;;29.30;82.50;;;;;;5074458;28;20060;-74
2023/09/11 11:43:48;;;;;;;1999.90;999.90;;;29.30;81.10;;;;;;5074293;28;20044;-75
2023/09/11 11:46:15;;;;;;;1999.90;999.90;;;29.40;80.20;;;;;;5073988;28;20044;-74
2023/09/11 11:48:41;;;;;;;1999.90;999.90;;;29.50;82.50;;;;;;5074533;28;20033;-74
2023/09/11 11:51:07;;;;;;;1999.90;999.90;;;29.70;80.70;;;;;;5074478;28;20504;-75
2023/09/11 11:53:33;;;;;;;1999.90;999.90;;;29.90;79.70;;;;;;5089953;28;20048;-74
2023/09/11 11:56:01;;;;;;;1999.90;999.90;;;30.00;78.70;;;;;;5074144;28;20033;-75
2023/09/11 11:58:26;;;;;;;1999.90;999.90;;;30.10;78.80;;;;;;5090623;28;20039;-74